createdAt,value
2018-05-02T00:00:58.558Z,0.00
2018-05-02T00:01:58.561Z,0.00
2018-05-02T00:02:58.725Z,0.00
2018-05-02T00:03:58.722Z,0.00
2018-05-02T00:04:58.739Z,0.00
2018-05-02T00:05:58.622Z,0.00
2018-05-02T00:06:58.771Z,0.00
2018-05-02T00:07:58.809Z,0.00
2018-05-02T00:08:58.685Z,0.00
2018-05-02T00:09:58.688Z,0.00
2018-05-02T00:10:58.832Z,0.00
2018-05-02T00:11:58.730Z,0.00
2018-05-02T00:12:58.890Z,0.00
2018-05-02T00:13:58.879Z,0.00
2018-05-02T00:14:58.768Z,0.00
2018-05-02T00:15:58.783Z,0.00
2018-05-02T00:16:58.933Z,0.00
2018-05-02T00:17:59.064Z,0.00
2018-05-02T00:18:58.828Z,0.00
2018-05-02T00:19:58.858Z,0.00
2018-05-02T00:20:58.865Z,0.00
2018-05-02T00:21:58.880Z,0.00
2018-05-02T00:22:59.174Z,0.00
2018-05-02T00:23:59.036Z,0.00
2018-05-02T00:24:58.939Z,0.00
2018-05-02T00:25:58.947Z,0.00
2018-05-02T00:26:58.966Z,0.00
2018-05-02T00:27:59.248Z,0.00
2018-05-02T00:28:58.997Z,0.00
2018-05-02T00:29:59.015Z,0.00
2018-05-02T00:30:59.027Z,0.00
2018-05-02T00:31:59.036Z,0.00
2018-05-02T00:32:59.158Z,0.00
2018-05-02T00:33:59.111Z,0.00
2018-05-02T00:34:59.088Z,0.00
2018-05-02T00:35:59.095Z,0.00
2018-05-02T00:36:59.119Z,0.00
2018-05-02T00:37:59.408Z,0.00
2018-05-02T00:38:59.144Z,0.00
2018-05-02T00:39:59.168Z,0.00
2018-05-02T00:40:59.174Z,0.00
2018-05-02T00:41:59.200Z,0.00
2018-05-02T00:42:59.559Z,0.00
2018-05-02T00:43:59.223Z,0.00
2018-05-02T00:44:59.277Z,0.00
2018-05-02T00:45:59.375Z,0.00
2018-05-02T00:46:59.264Z,0.00
2018-05-02T00:47:59.556Z,0.00
2018-05-02T00:48:59.301Z,0.00
2018-05-02T00:49:59.437Z,0.00
2018-05-02T00:50:59.526Z,0.00
2018-05-02T00:51:59.349Z,0.00
2018-05-02T00:52:59.464Z,0.00
2018-05-02T00:53:59.384Z,0.00
2018-05-02T00:54:59.391Z,0.00
2018-05-02T00:55:59.401Z,0.00
2018-05-02T00:56:59.424Z,0.00
2018-05-02T00:57:59.532Z,0.00
2018-05-02T00:58:59.573Z,0.00
2018-05-02T00:59:59.589Z,0.00
2018-05-02T01:00:59.481Z,0.00
2018-05-02T01:01:59.618Z,0.00
2018-05-02T01:02:59.512Z,0.00
2018-05-02T01:03:59.751Z,0.00
2018-05-02T01:04:59.666Z,0.00
2018-05-02T01:05:59.555Z,0.00
2018-05-02T01:06:59.697Z,0.00
2018-05-02T01:07:59.708Z,0.00
2018-05-02T01:08:59.607Z,0.00
2018-05-02T01:09:59.711Z,0.00
2018-05-02T01:10:59.642Z,0.00
2018-05-02T01:11:59.651Z,0.00
2018-05-02T01:12:59.662Z,0.00
2018-05-02T01:13:59.800Z,0.00
2018-05-02T01:14:59.789Z,0.00
2018-05-02T01:15:59.834Z,0.00
2018-05-02T01:16:59.847Z,0.00
2018-05-02T01:17:59.734Z,0.00
2018-05-02T01:18:59.755Z,0.00
2018-05-02T01:19:59.927Z,0.00
2018-05-02T01:20:59.909Z,0.00
2018-05-02T01:21:59.919Z,0.00
2018-05-02T01:22:59.822Z,0.00
2018-05-02T01:23:59.826Z,0.00
2018-05-02T01:24:59.948Z,0.00
2018-05-02T01:25:59.981Z,0.00
2018-05-02T01:26:59.879Z,0.00
2018-05-02T01:28:00.017Z,0.00
2018-05-02T01:29:00.028Z,0.00
2018-05-02T01:30:00.145Z,0.00
2018-05-02T01:31:00.061Z,0.00
2018-05-02T01:31:59.953Z,0.00
2018-05-02T01:32:59.977Z,0.00
2018-05-02T01:33:59.983Z,0.00
2018-05-02T01:35:00.161Z,0.00
2018-05-02T01:36:00.011Z,0.00
2018-05-02T01:37:00.024Z,0.00
2018-05-02T01:38:00.046Z,0.00
2018-05-02T01:39:00.054Z,0.00
2018-05-02T01:40:00.230Z,0.00
2018-05-02T01:41:00.099Z,0.00
2018-05-02T01:42:00.233Z,0.00
2018-05-02T01:43:00.129Z,0.00
2018-05-02T01:44:00.127Z,0.00
2018-05-02T01:45:00.358Z,0.00
2018-05-02T01:46:00.166Z,0.00
2018-05-02T01:47:00.236Z,0.00
2018-05-02T01:48:00.322Z,0.00
2018-05-02T01:49:00.212Z,0.00
2018-05-02T01:50:00.333Z,0.00
2018-05-02T01:51:00.371Z,0.00
2018-05-02T01:52:00.382Z,0.00
2018-05-02T01:53:00.399Z,0.00
2018-05-02T01:54:00.413Z,0.00
2018-05-02T01:55:00.461Z,0.00
2018-05-02T01:56:00.319Z,0.00
2018-05-02T01:57:00.348Z,0.00
2018-05-02T01:58:00.479Z,0.00
2018-05-02T01:59:00.364Z,0.00
2018-05-02T02:00:00.489Z,0.00
2018-05-02T02:01:00.397Z,0.00
2018-05-02T02:02:00.421Z,0.00
2018-05-02T02:03:00.430Z,0.00
2018-05-02T02:04:00.443Z,0.00
2018-05-02T02:05:00.617Z,0.00
2018-05-02T02:06:00.475Z,0.00
2018-05-02T02:08:00.519Z,0.00
2018-05-02T02:09:00.536Z,0.00
2018-05-02T02:10:00.655Z,0.00
2018-05-02T02:11:00.562Z,0.00
2018-05-02T02:12:00.570Z,0.00
2018-05-02T02:13:00.715Z,0.00
2018-05-02T02:14:00.728Z,0.00
2018-05-02T02:15:00.775Z,0.00
2018-05-02T02:16:00.631Z,0.00
2018-05-02T02:17:00.775Z,0.00
2018-05-02T02:18:00.791Z,0.00
2018-05-02T02:19:00.686Z,0.00
2018-05-02T02:20:00.702Z,0.00
2018-05-02T02:21:00.940Z,0.00
2018-05-02T02:22:00.733Z,0.00
2018-05-02T02:23:00.743Z,0.00
2018-05-02T02:24:00.756Z,0.00
2018-05-02T02:25:00.786Z,0.00
2018-05-02T02:26:01.065Z,0.00
2018-05-02T02:27:00.933Z,0.00
2018-05-02T02:28:00.828Z,0.00
2018-05-02T02:29:00.966Z,0.00
2018-05-02T02:30:00.861Z,0.00
2018-05-02T02:31:01.020Z,0.00
2018-05-02T02:32:00.881Z,0.00
2018-05-02T02:33:01.026Z,0.00
2018-05-02T02:34:01.002Z,0.00
2018-05-02T02:35:00.928Z,0.00
2018-05-02T02:36:01.172Z,0.00
2018-05-02T02:37:01.095Z,0.00
2018-05-02T02:38:00.993Z,0.00
2018-05-02T02:39:01.121Z,0.00
2018-05-02T02:40:01.010Z,0.00
2018-05-02T02:41:01.251Z,0.00
2018-05-02T02:42:01.042Z,0.00
2018-05-02T02:43:01.065Z,0.00
2018-05-02T02:44:01.071Z,0.00
2018-05-02T02:45:01.098Z,0.00
2018-05-02T02:46:01.252Z,0.00
2018-05-02T02:47:01.246Z,0.00
2018-05-02T02:48:01.149Z,0.00
2018-05-02T02:49:01.165Z,0.00
2018-05-02T02:50:01.184Z,0.00
2018-05-02T02:51:01.412Z,0.00
2018-05-02T02:52:01.327Z,0.00
2018-05-02T02:53:01.227Z,0.00
2018-05-02T02:54:01.357Z,0.00
2018-05-02T02:55:01.297Z,0.00
2018-05-02T02:56:01.420Z,0.00
2018-05-02T02:57:01.277Z,0.00
2018-05-02T02:58:01.419Z,0.00
2018-05-02T02:59:01.306Z,0.00
2018-05-02T03:00:01.336Z,0.00
2018-05-02T03:01:01.448Z,0.00
2018-05-02T03:02:01.370Z,0.00
2018-05-02T03:03:01.380Z,0.00
2018-05-02T03:04:01.388Z,0.00
2018-05-02T03:05:01.530Z,0.00
2018-05-02T03:06:01.622Z,0.00
2018-05-02T03:07:01.442Z,0.00
2018-05-02T03:08:01.461Z,0.00
2018-05-02T03:09:01.467Z,0.00
2018-05-02T03:10:01.488Z,0.00
2018-05-02T03:11:01.829Z,0.00
2018-05-02T03:12:01.674Z,0.00
2018-05-02T03:13:01.543Z,0.00
2018-05-02T03:14:01.561Z,0.00
2018-05-02T03:15:01.559Z,0.00
2018-05-02T03:16:01.703Z,0.00
2018-05-02T03:17:01.923Z,0.00
2018-05-02T03:18:01.615Z,0.00
2018-05-02T03:19:01.636Z,0.00
2018-05-02T03:20:01.769Z,0.00
2018-05-02T03:21:01.781Z,0.00
2018-05-02T03:22:01.676Z,0.00
2018-05-02T03:23:01.784Z,0.00
2018-05-02T03:24:01.703Z,0.00
2018-05-02T03:25:01.844Z,0.00
2018-05-02T03:26:01.731Z,0.00
2018-05-02T03:27:01.895Z,0.00
2018-05-02T03:28:01.990Z,0.00
2018-05-02T03:29:01.907Z,0.00
2018-05-02T03:30:01.813Z,0.00
2018-05-02T03:31:01.808Z,0.00
2018-05-02T03:32:01.818Z,0.00
2018-05-02T03:33:02.067Z,0.00
2018-05-02T03:34:01.859Z,0.00
2018-05-02T03:35:01.998Z,0.00
2018-05-02T03:36:02.012Z,0.00
2018-05-02T03:37:02.031Z,0.00
2018-05-02T03:38:02.029Z,0.00
2018-05-02T03:39:02.061Z,0.00
2018-05-02T03:40:01.965Z,0.00
2018-05-02T03:41:01.960Z,0.00
2018-05-02T03:42:01.986Z,0.00
2018-05-02T03:43:02.221Z,0.00
2018-05-02T03:44:02.137Z,0.00
2018-05-02T03:45:02.149Z,0.00
2018-05-02T03:46:02.165Z,0.00
2018-05-02T03:47:02.054Z,0.00
2018-05-02T03:48:02.296Z,0.00
2018-05-02T03:49:02.236Z,0.00
2018-05-02T03:50:02.110Z,0.00
2018-05-02T03:51:02.115Z,0.00
2018-05-02T03:52:02.144Z,0.00
2018-05-02T03:53:02.432Z,0.00
2018-05-02T03:54:02.167Z,0.00
2018-05-02T03:55:02.186Z,0.00
2018-05-02T03:56:02.188Z,0.00
2018-05-02T03:57:02.213Z,0.00
2018-05-02T03:58:02.444Z,0.00
2018-05-02T03:59:02.363Z,0.00
2018-05-02T04:00:02.248Z,0.00
2018-05-02T04:01:02.392Z,0.00
2018-05-02T04:02:02.279Z,0.00
2018-05-02T04:03:02.522Z,0.00
2018-05-02T04:04:02.317Z,0.00
2018-05-02T04:05:02.457Z,0.00
2018-05-02T04:06:02.466Z,0.00
2018-05-02T04:07:02.365Z,0.00
2018-05-02T04:08:02.595Z,0.00
2018-05-02T04:09:02.398Z,0.00
2018-05-02T04:10:02.398Z,0.00
2018-05-02T04:11:02.427Z,0.00
2018-05-02T04:12:02.441Z,0.00
2018-05-02T04:13:02.674Z,0.00
2018-05-02T04:14:02.584Z,0.00
2018-05-02T04:15:02.478Z,0.00
2018-05-02T04:16:02.488Z,0.00
2018-05-02T04:17:02.512Z,0.00
2018-05-02T04:18:02.622Z,0.00
2018-05-02T04:19:02.660Z,0.00
2018-05-02T04:20:02.679Z,0.00
2018-05-02T04:21:02.572Z,0.00
2018-05-02T04:22:02.578Z,0.00
2018-05-02T04:23:02.820Z,0.00
2018-05-02T04:24:02.734Z,0.00
2018-05-02T04:25:02.749Z,0.00
2018-05-02T04:26:02.703Z,0.00
2018-05-02T04:27:02.780Z,0.00
2018-05-02T04:28:02.797Z,0.00
2018-05-02T04:29:02.801Z,0.00
2018-05-02T04:30:02.822Z,0.00
2018-05-02T04:31:02.725Z,0.00
2018-05-02T04:32:02.857Z,0.00
2018-05-02T04:33:02.869Z,0.00
2018-05-02T04:34:02.983Z,0.00
2018-05-02T04:35:02.770Z,0.00
2018-05-02T04:36:02.915Z,0.00
2018-05-02T04:37:02.801Z,0.00
2018-05-02T04:38:02.825Z,0.00
2018-05-02T04:39:03.056Z,0.00
2018-05-02T04:40:02.848Z,0.00
2018-05-02T04:41:02.884Z,0.00
2018-05-02T04:42:03.001Z,0.00
2018-05-02T04:43:02.893Z,0.00
2018-05-02T04:44:03.031Z,0.00
2018-05-02T04:45:03.147Z,0.00
2018-05-02T04:46:02.935Z,0.00
2018-05-02T04:47:02.957Z,0.00
2018-05-02T04:48:02.964Z,0.00
2018-05-02T04:49:02.992Z,0.00
2018-05-02T04:50:03.222Z,0.00
2018-05-02T04:51:03.136Z,0.00
2018-05-02T04:52:03.036Z,0.00
2018-05-02T04:53:03.039Z,0.00
2018-05-02T04:54:03.052Z,0.00
2018-05-02T04:55:03.130Z,0.00
2018-05-02T04:56:03.081Z,0.00
2018-05-02T04:57:03.222Z,0.00
2018-05-02T04:58:03.111Z,0.00
2018-05-02T04:59:03.132Z,0.00
2018-05-02T05:00:03.367Z,0.00
2018-05-02T05:01:03.156Z,0.00
2018-05-02T05:02:03.299Z,0.00
2018-05-02T05:03:03.184Z,0.00
2018-05-02T05:04:03.329Z,0.00
2018-05-02T05:05:03.326Z,0.00
2018-05-02T05:06:03.285Z,0.00
2018-05-02T05:07:03.254Z,0.00
2018-05-02T05:08:03.262Z,0.00
2018-05-02T05:09:03.399Z,0.00
2018-05-02T05:10:03.388Z,0.00
2018-05-02T05:11:03.427Z,0.00
2018-05-02T05:12:03.328Z,0.00
2018-05-02T05:13:03.326Z,0.00
2018-05-02T05:14:03.352Z,0.00
2018-05-02T05:15:03.585Z,0.00
2018-05-02T05:16:03.379Z,0.00
2018-05-02T05:17:03.514Z,0.00
2018-05-02T05:18:03.532Z,0.00
2018-05-02T05:19:03.430Z,0.00
2018-05-02T05:20:03.658Z,0.00
2018-05-02T05:21:03.446Z,0.00
2018-05-02T05:22:03.467Z,0.00
2018-05-02T05:23:03.601Z,0.00
2018-05-02T05:24:03.617Z,0.00
2018-05-02T05:25:03.607Z,0.00
2018-05-02T05:26:03.646Z,0.00
2018-05-02T05:27:03.535Z,0.00
2018-05-02T05:28:03.677Z,0.00
2018-05-02T05:29:03.576Z,0.00
2018-05-02T05:30:03.686Z,0.00
2018-05-02T05:31:03.592Z,0.00
2018-05-02T05:32:03.620Z,0.00
2018-05-02T05:33:03.630Z,0.00
2018-05-02T05:34:03.650Z,0.00
2018-05-02T05:35:03.779Z,0.00
2018-05-02T05:36:03.892Z,0.00
2018-05-02T05:37:03.688Z,0.00
2018-05-02T05:38:03.822Z,0.00
2018-05-02T05:39:03.712Z,0.00
2018-05-02T05:40:03.731Z,0.00
2018-05-02T05:41:03.841Z,0.00
2018-05-02T05:42:03.883Z,0.00
2018-05-02T05:43:03.897Z,0.00
2018-05-02T05:44:03.795Z,0.00
2018-05-02T05:45:03.925Z,0.00
2018-05-02T05:46:04.039Z,0.00
2018-05-02T05:47:03.830Z,0.00
2018-05-02T05:48:03.970Z,0.00
2018-05-02T05:49:03.867Z,0.00
2018-05-02T05:50:03.883Z,0.00
2018-05-02T05:51:03.882Z,0.00
2018-05-02T05:52:04.000Z,0.00
2018-05-02T05:53:03.921Z,0.00
2018-05-02T05:54:04.035Z,0.00
2018-05-02T05:55:04.069Z,0.00
2018-05-02T05:56:04.083Z,0.00
2018-05-02T05:57:04.070Z,0.00
2018-05-02T05:58:04.111Z,0.00
2018-05-02T05:59:04.128Z,0.00
2018-05-02T06:00:04.023Z,0.00
2018-05-02T06:01:04.031Z,0.00
2018-05-02T06:02:04.150Z,0.00
2018-05-02T06:03:04.190Z,0.00
2018-05-02T06:04:04.077Z,0.00
2018-05-02T06:05:04.217Z,0.00
2018-05-02T06:06:04.099Z,0.00
2018-05-02T06:07:04.222Z,0.00
2018-05-02T06:08:04.138Z,0.00
2018-05-02T06:09:04.145Z,0.00
2018-05-02T06:10:04.288Z,0.00
2018-05-02T06:11:04.175Z,0.00
2018-05-02T06:12:04.288Z,0.00
2018-05-02T06:13:04.200Z,0.00
2018-05-02T06:14:04.230Z,0.00
2018-05-02T06:15:04.239Z,0.00
2018-05-02T06:16:04.374Z,0.00
2018-05-02T06:17:04.485Z,0.00
2018-05-02T06:18:04.281Z,0.00
2018-05-02T06:19:04.414Z,0.00
2018-05-02T06:20:04.433Z,0.00
2018-05-02T06:21:04.325Z,0.00
2018-05-02T06:22:04.563Z,0.00
2018-05-02T06:23:04.473Z,0.00
2018-05-02T06:24:04.369Z,0.00
2018-05-02T06:25:04.504Z,0.00
2018-05-02T06:26:04.407Z,0.00
2018-05-02T06:27:04.401Z,0.00
2018-05-02T06:28:04.544Z,0.00
2018-05-02T06:29:04.435Z,0.00
2018-05-02T06:30:04.573Z,0.00
2018-05-02T06:31:04.462Z,0.00
2018-05-02T06:32:04.489Z,0.00
2018-05-02T06:33:04.719Z,0.00
2018-05-02T06:34:04.629Z,0.00
2018-05-02T06:35:04.531Z,0.00
2018-05-02T06:36:04.530Z,0.00
2018-05-02T06:37:04.677Z,0.00
2018-05-02T06:38:04.555Z,0.00
2018-05-02T06:39:04.801Z,0.00
2018-05-02T06:40:04.591Z,0.00
2018-05-02T06:41:04.732Z,0.00
2018-05-02T06:42:04.749Z,0.00
2018-05-02T06:43:04.760Z,0.00
2018-05-02T06:44:04.655Z,0.00
2018-05-02T06:45:04.762Z,0.00
2018-05-02T06:46:04.685Z,0.00
2018-05-02T06:47:04.817Z,0.00
2018-05-02T06:48:04.711Z,0.00
2018-05-02T06:49:04.717Z,0.00
2018-05-02T06:50:04.832Z,0.00
2018-05-02T06:51:04.877Z,0.00
2018-05-02T06:52:04.889Z,0.00
2018-05-02T06:53:04.776Z,0.00
2018-05-02T06:54:04.916Z,0.00
2018-05-02T06:55:04.917Z,0.00
2018-05-02T06:56:04.947Z,0.00
2018-05-02T06:57:04.965Z,0.00
2018-05-02T06:58:04.974Z,0.00
2018-05-02T06:59:04.871Z,0.00
2018-05-02T07:00:04.979Z,0.00
2018-05-02T07:01:04.899Z,0.00
2018-05-02T07:02:05.032Z,0.00
2018-05-02T07:03:05.046Z,0.00
2018-05-02T07:04:05.061Z,0.00
2018-05-02T07:05:05.205Z,0.00
2018-05-02T07:06:04.975Z,0.00
2018-05-02T07:07:05.033Z,0.00
2018-05-02T07:08:05.121Z,0.00
2018-05-02T07:09:05.011Z,0.00
2018-05-02T07:10:05.275Z,0.00
2018-05-02T07:11:05.161Z,0.00
2018-05-02T07:12:05.058Z,0.00
2018-05-02T07:13:05.065Z,0.00
2018-05-02T07:14:05.086Z,0.00
2018-05-02T07:15:05.194Z,0.00
2018-05-02T07:16:05.118Z,0.00
2018-05-02T07:17:05.246Z,0.00
2018-05-02T07:18:05.147Z,0.00
2018-05-02T07:19:05.147Z,0.00
2018-05-02T07:20:05.264Z,0.00
2018-05-02T07:21:05.178Z,0.00
2018-05-02T07:22:05.192Z,0.00
2018-05-02T07:23:05.207Z,0.00
2018-05-02T07:24:05.355Z,0.00
2018-05-02T07:25:05.336Z,0.00
2018-05-02T07:26:05.253Z,0.00
2018-05-02T07:27:05.264Z,0.00
2018-05-02T07:28:05.287Z,0.00
2018-05-02T07:29:05.364Z,0.00
2018-05-02T07:30:05.517Z,0.00
2018-05-02T07:31:05.447Z,0.00
2018-05-02T07:32:05.462Z,0.00
2018-05-02T07:33:05.686Z,0.00
2018-05-02T07:34:05.490Z,0.00
2018-05-02T07:35:05.703Z,0.00
2018-05-02T07:36:05.399Z,0.00
2018-05-02T07:37:05.532Z,0.00
2018-05-02T07:38:05.547Z,0.00
2018-05-02T07:39:05.432Z,0.00
2018-05-02T07:40:05.550Z,0.00
2018-05-02T07:41:05.464Z,0.00
2018-05-02T07:42:05.518Z,0.00
2018-05-02T07:43:05.497Z,0.00
2018-05-02T07:44:05.630Z,0.00
2018-05-02T07:45:05.727Z,0.00
2018-05-02T07:46:05.658Z,0.00
2018-05-02T07:47:05.676Z,0.00
2018-05-02T07:48:05.690Z,0.00
2018-05-02T07:49:05.595Z,0.00
2018-05-02T07:50:05.789Z,0.00
2018-05-02T07:51:05.730Z,0.00
2018-05-02T07:52:05.631Z,0.00
2018-05-02T07:53:05.641Z,0.00
2018-05-02T07:54:05.646Z,0.00
2018-05-02T07:55:05.764Z,0.00
2018-05-02T07:56:05.804Z,0.00
2018-05-02T07:57:05.819Z,0.00
2018-05-02T07:58:05.701Z,0.00
2018-05-02T07:59:05.716Z,0.00
2018-05-02T08:00:05.739Z,0.00
2018-05-02T08:01:06.075Z,0.00
2018-05-02T08:02:05.767Z,0.00
2018-05-02T08:03:05.774Z,0.00
2018-05-02T08:04:05.794Z,0.00
2018-05-02T08:05:05.803Z,0.00
2018-05-02T08:06:06.017Z,0.00
2018-05-02T08:07:05.829Z,0.00
2018-05-02T08:08:05.975Z,0.00
2018-05-02T08:09:05.871Z,0.00
2018-05-02T08:10:05.879Z,0.00
2018-05-02T08:11:06.221Z,0.00
2018-05-02T08:12:05.912Z,0.00
2018-05-02T08:13:05.928Z,0.00
2018-05-02T08:14:05.940Z,0.00
2018-05-02T08:15:06.071Z,0.00
2018-05-02T08:16:06.056Z,0.00
2018-05-02T08:17:05.983Z,0.00
2018-05-02T08:18:05.985Z,0.00
2018-05-02T08:19:06.126Z,0.00
2018-05-02T08:20:06.140Z,0.00
2018-05-02T08:21:06.127Z,0.00
2018-05-02T08:22:06.124Z,0.00
2018-05-02T08:23:06.180Z,0.00
2018-05-02T08:24:06.068Z,0.00
2018-05-02T08:25:06.096Z,0.00
2018-05-02T08:26:06.322Z,0.00
2018-05-02T08:27:06.124Z,0.00
2018-05-02T08:28:06.140Z,0.00
2018-05-02T08:29:06.265Z,0.00
2018-05-02T08:30:06.166Z,0.00
2018-05-02T08:31:06.276Z,0.00
2018-05-02T08:32:06.185Z,0.00
2018-05-02T08:33:06.204Z,0.00
2018-05-02T08:34:06.210Z,0.00
2018-05-02T08:35:06.230Z,0.00
2018-05-02T08:36:06.339Z,0.00
2018-05-02T08:37:06.260Z,0.00
2018-05-02T08:38:06.264Z,0.00
2018-05-02T08:39:06.288Z,0.00
2018-05-02T08:40:06.307Z,0.00
2018-05-02T08:41:06.414Z,0.00
2018-05-02T08:42:06.447Z,0.00
2018-05-02T08:43:06.334Z,0.00
2018-05-02T08:44:06.346Z,0.00
2018-05-02T08:45:06.489Z,0.00
2018-05-02T08:46:06.582Z,0.00
2018-05-02T08:47:06.517Z,0.00
2018-05-02T08:48:06.417Z,0.00
2018-05-02T08:49:06.422Z,0.00
2018-05-02T08:50:06.440Z,0.00
2018-05-02T08:51:06.673Z,0.00
2018-05-02T08:52:06.590Z,0.00
2018-05-02T08:53:06.488Z,0.00
2018-05-02T08:54:06.614Z,0.00
2018-05-02T08:55:06.517Z,0.00
2018-05-02T08:56:06.744Z,0.00
2018-05-02T08:57:06.533Z,0.00
2018-05-02T08:58:06.553Z,0.00
2018-05-02T08:59:06.688Z,0.00
2018-05-02T09:00:06.575Z,4.00
2018-05-02T09:01:06.595Z,0.00
2018-05-02T09:02:06.702Z,4.00
2018-05-02T09:03:06.742Z,0.00
2018-05-02T09:04:06.628Z,0.00
2018-05-02T09:05:06.643Z,4.00
2018-05-02T09:06:06.654Z,4.00
2018-05-02T09:07:06.774Z,8.00
2018-05-02T09:08:06.813Z,8.00
2018-05-02T09:09:06.827Z,12.00
2018-05-02T09:10:06.839Z,16.00
2018-05-02T09:11:06.725Z,20.00
2018-05-02T09:12:06.841Z,28.00
2018-05-02T09:13:06.765Z,32.00
2018-05-02T09:14:06.769Z,44.00
2018-05-02T09:15:06.790Z,52.00
2018-05-02T09:16:06.925Z,64.00
2018-05-02T09:17:06.911Z,80.00
2018-05-02T09:18:06.831Z,96.00
2018-05-02T09:19:06.970Z,116.00
2018-05-02T09:20:06.978Z,136.00
2018-05-02T09:21:06.882Z,160.00
2018-05-02T09:22:07.107Z,188.00
2018-05-02T09:23:06.904Z,220.00
2018-05-02T09:24:06.911Z,252.00
2018-05-02T09:25:07.050Z,284.00
2018-05-02T09:26:06.938Z,324.00
2018-05-02T09:27:07.159Z,372.00
2018-05-02T09:28:06.984Z,420.00
2018-05-02T09:29:06.996Z,468.00
2018-05-02T09:30:07.000Z,524.00
2018-05-02T09:31:07.020Z,584.00
2018-05-02T09:32:07.126Z,648.00
2018-05-02T09:33:07.166Z,720.00
2018-05-02T09:34:07.177Z,800.00
2018-05-02T09:35:07.072Z,884.00
2018-05-02T09:36:07.083Z,976.00
2018-05-02T09:37:07.240Z,1076.00
2018-05-02T09:38:07.109Z,1252.00
2018-05-02T09:39:07.247Z,1448.00
2018-05-02T09:40:07.258Z,1608.00
2018-05-02T09:41:07.271Z,1776.00
2018-05-02T09:42:07.370Z,1976.00
2018-05-02T09:43:07.173Z,2192.00
2018-05-02T09:44:07.404Z,2404.00
2018-05-02T09:45:07.327Z,2632.00
2018-05-02T09:46:07.224Z,2920.00
2018-05-02T09:47:07.557Z,3252.00
2018-05-02T09:48:07.243Z,3544.00
2018-05-02T09:49:07.267Z,3856.00
2018-05-02T09:50:07.270Z,4244.00
2018-05-02T09:51:07.291Z,4676.00
2018-05-02T09:52:07.496Z,5072.00
2018-05-02T09:53:07.443Z,5480.00
2018-05-02T09:54:07.455Z,5904.00
2018-05-02T09:55:07.356Z,6344.00
2018-05-02T09:56:07.486Z,6804.00
2018-05-02T09:57:07.604Z,7200.00
2018-05-02T09:58:07.489Z,7592.00
2018-05-02T09:59:07.408Z,7956.00
2018-05-02T10:00:07.422Z,8304.00
2018-05-02T10:01:07.441Z,8604.00
2018-05-02T10:02:07.551Z,8880.00
2018-05-02T10:03:07.472Z,9048.00
2018-05-02T10:04:07.487Z,9344.00
2018-05-02T10:05:07.496Z,9556.00
2018-05-02T10:06:07.637Z,10176.00
2018-05-02T10:07:07.626Z,10188.00
2018-05-02T10:08:07.668Z,10624.00
2018-05-02T10:09:07.683Z,11124.00
2018-05-02T10:10:07.573Z,11392.00
2018-05-02T10:11:07.586Z,11768.00
2018-05-02T10:12:07.832Z,12092.00
2018-05-02T10:13:07.750Z,12608.00
2018-05-02T10:14:07.642Z,13024.00
2018-05-02T10:15:07.658Z,13504.00
2018-05-02T10:16:07.677Z,13920.00
2018-05-02T10:17:07.913Z,14272.00
2018-05-02T10:18:07.740Z,14784.00
2018-05-02T10:19:07.719Z,15200.00
2018-05-02T10:20:07.738Z,15680.00
2018-05-02T10:21:07.762Z,16128.00
2018-05-02T10:22:07.871Z,16384.00
2018-05-02T10:23:07.796Z,16576.00
2018-05-02T10:24:07.930Z,16864.00
2018-05-02T10:25:07.826Z,17152.00
2018-05-02T10:26:07.851Z,17600.00
2018-05-02T10:27:07.964Z,17952.00
2018-05-02T10:28:07.874Z,18112.00
2018-05-02T10:29:07.903Z,18400.00
2018-05-02T10:30:08.035Z,18720.00
2018-05-02T10:31:07.934Z,19008.00
2018-05-02T10:32:08.043Z,19136.00
2018-05-02T10:33:07.967Z,19264.00
2018-05-02T10:34:07.998Z,19584.00
2018-05-02T10:35:08.033Z,19968.00
2018-05-02T10:36:08.031Z,20256.00
2018-05-02T10:37:08.147Z,20544.00
2018-05-02T10:38:08.058Z,20960.00
2018-05-02T10:39:08.106Z,21248.00
2018-05-02T10:40:08.099Z,21536.00
2018-05-02T10:41:08.235Z,21696.00
2018-05-02T10:42:08.235Z,21792.00
2018-05-02T10:43:08.186Z,22048.00
2018-05-02T10:44:08.179Z,22240.00
2018-05-02T10:45:08.314Z,22752.00
2018-05-02T10:46:08.330Z,23232.00
2018-05-02T10:47:08.451Z,23520.00
2018-05-02T10:48:08.368Z,23904.00
2018-05-02T10:49:08.276Z,24064.00
2018-05-02T10:50:08.288Z,24480.00
2018-05-02T10:51:08.426Z,24960.00
2018-05-02T10:52:08.547Z,25312.00
2018-05-02T10:53:08.353Z,25568.00
2018-05-02T10:54:08.373Z,26016.00
2018-05-02T10:55:08.506Z,26368.00
2018-05-02T10:56:08.401Z,26368.00
2018-05-02T10:57:08.647Z,26816.00
2018-05-02T10:58:08.438Z,27168.00
2018-05-02T10:59:08.467Z,27296.00
2018-05-02T11:00:08.493Z,27488.00
2018-05-02T11:01:08.510Z,27552.00
2018-05-02T11:02:08.620Z,27616.00
2018-05-02T11:03:08.546Z,27744.00
2018-05-02T11:04:08.562Z,27904.00
2018-05-02T11:05:08.589Z,28352.00
2018-05-02T11:06:08.601Z,28640.00
2018-05-02T11:07:08.872Z,28160.00
2018-05-02T11:08:08.651Z,29088.00
2018-05-02T11:09:08.664Z,29536.00
2018-05-02T11:10:08.812Z,30016.00
2018-05-02T11:11:08.834Z,30208.00
2018-05-02T11:12:08.954Z,26464.00
2018-05-02T11:13:08.754Z,30688.00
2018-05-02T11:14:08.892Z,30336.00
2018-05-02T11:15:08.786Z,25728.00
2018-05-02T11:16:08.813Z,27872.00
2018-05-02T11:17:09.104Z,25376.00
2018-05-02T11:18:08.975Z,29696.00
2018-05-02T11:19:08.868Z,32704.00
2018-05-02T11:20:09.017Z,23552.00
2018-05-02T11:21:08.910Z,32416.00
2018-05-02T11:22:09.039Z,32128.00
2018-05-02T11:23:09.078Z,19616.00
2018-05-02T11:24:09.101Z,32960.00
2018-05-02T11:25:08.996Z,24288.00
2018-05-02T11:26:09.018Z,19200.00
2018-05-02T11:27:09.142Z,24736.00
2018-05-02T11:28:09.067Z,13876.00
2018-05-02T11:29:09.089Z,31552.00
2018-05-02T11:30:09.120Z,33664.00
2018-05-02T11:31:09.114Z,33536.00
2018-05-02T11:32:09.237Z,15040.00
2018-05-02T11:33:09.282Z,35648.00
2018-05-02T11:34:09.184Z,29184.00
2018-05-02T11:35:09.194Z,20064.00
2018-05-02T11:36:09.344Z,6912.00
2018-05-02T11:37:09.462Z,27296.00
2018-05-02T11:38:09.264Z,21120.00
2018-05-02T11:39:09.402Z,11560.00
2018-05-02T11:40:09.314Z,59968.00
2018-05-02T11:41:09.320Z,24288.00
2018-05-02T11:42:09.561Z,60160.00
2018-05-02T11:43:09.487Z,44224.00
2018-05-02T11:44:09.502Z,42816.00
2018-05-02T11:45:09.522Z,135616.00
2018-05-02T11:46:09.497Z,24992.00
2018-05-02T11:47:09.662Z,14592.00
2018-05-02T11:48:09.455Z,32800.00
2018-05-02T11:49:09.602Z,35232.00
2018-05-02T11:50:09.620Z,15684.00
2018-05-02T11:51:09.642Z,60064.00
2018-05-02T11:52:09.650Z,68064.00
2018-05-02T11:53:09.684Z,59776.00
2018-05-02T11:54:09.701Z,86464.00
2018-05-02T11:55:09.724Z,31904.00
2018-05-02T11:56:09.624Z,29280.00
2018-05-02T11:57:09.738Z,46624.00
2018-05-02T11:58:09.656Z,112704.00
2018-05-02T11:59:09.688Z,85056.00
2018-05-02T12:00:09.704Z,90208.00
2018-05-02T12:01:09.849Z,92928.00
2018-05-02T12:02:09.844Z,51040.00
2018-05-02T12:03:09.757Z,52768.00
2018-05-02T12:04:09.905Z,56768.00
2018-05-02T12:05:09.810Z,56960.00
2018-05-02T12:06:09.815Z,110752.00
2018-05-02T12:07:09.952Z,102912.00
2018-05-02T12:08:09.865Z,83136.00
2018-05-02T12:09:09.878Z,12572.00
2018-05-02T12:10:09.905Z,103744.00
2018-05-02T12:11:09.917Z,0.00
2018-05-02T12:12:10.166Z,67104.00
2018-05-02T12:13:09.963Z,15380.00
2018-05-02T12:14:09.979Z,11564.00
2018-05-02T12:15:10.002Z,13860.00
2018-05-02T12:16:10.154Z,26592.00
2018-05-02T12:17:10.268Z,18316.00
2018-05-02T12:18:10.073Z,45184.00
2018-05-02T12:19:10.078Z,24416.00
2018-05-02T12:20:10.226Z,74016.00
2018-05-02T12:21:10.134Z,59968.00
2018-05-02T12:22:10.319Z,31904.00
2018-05-02T12:23:10.168Z,22976.00
2018-05-02T12:24:10.311Z,11852.00
2018-05-02T12:25:10.217Z,11632.00
2018-05-02T12:26:10.219Z,37856.00
2018-05-02T12:27:10.465Z,0.00
2018-05-02T12:28:10.265Z,11824.00
2018-05-02T12:29:10.283Z,21856.00
2018-05-02T12:30:10.424Z,13564.00
2018-05-02T12:31:10.442Z,23328.00
2018-05-02T12:32:10.345Z,11464.00
2018-05-02T12:33:10.477Z,14580.00
2018-05-02T12:34:10.380Z,54784.00
2018-05-02T12:35:10.519Z,11924.00
2018-05-02T12:36:10.539Z,28352.00
2018-05-02T12:37:10.559Z,12472.00
2018-05-02T12:38:10.676Z,89056.00
2018-05-02T12:39:10.475Z,62112.00
2018-05-02T12:40:10.621Z,42432.00
2018-05-02T12:41:10.518Z,86368.00
2018-05-02T12:42:10.531Z,11892.00
2018-05-02T12:43:10.777Z,27648.00
2018-05-02T12:44:10.574Z,36704.00
2018-05-02T12:45:10.714Z,40096.00
2018-05-02T12:46:10.616Z,11392.00
2018-05-02T12:47:10.627Z,43040.00
2018-05-02T12:48:10.875Z,52352.00
2018-05-02T12:49:10.792Z,14708.00
2018-05-02T12:50:10.812Z,16744.00
2018-05-02T12:51:10.704Z,12860.00
2018-05-02T12:52:10.850Z,11808.00
2018-05-02T12:53:10.742Z,34304.00